Time;durP1;ratioP1;P1;durP2;ratioP2;P2;SDS_P1;SDS_P2;PMS_P1;PMS_P2;Temp;Humidity;BMP_temperature;BMP_pressure;BME280_temperature;BME280_humidity;BME280_pressure;Samples;Min_cycle;Max_cycle;Signal;HPM_P1;HPM_P2
2024/01/22 00:01:49;;;;;;;3.17;2.37;;;7.50;99.90;;;;;;5090232;28;20205;-80
2024/01/22 00:04:17;;;;;;;3.53;2.20;;;7.50;99.90;;;;;;5087043;28;20219;-81
2024/01/22 00:06:44;;;;;;;3.90;2.20;;;7.50;99.90;;;;;;5099555;28;20193;-81
2024/01/22 00:09:12;;;;;;;3.80;2.40;;;7.50;99.90;;;;;;5110112;28;20203;-81
2024/01/22 00:11:39;;;;;;;6.60;2.20;;;7.60;99.90;;;;;;5091445;28;20205;-80
2024/01/22 00:14:08;;;;;;;3.33;2.13;;;7.50;99.90;;;;;;5101307;28;20221;-80
2024/01/22 00:16:39;;;;;;;3.87;2.30;;;7.50;99.90;;;;;;5079658;28;20240;-80
2024/01/22 00:19:07;;;;;;;4.20;2.33;;;7.60;99.90;;;;;;5086689;28;20208;-80
2024/01/22 00:21:34;;;;;;;5.90;2.37;;;7.60;99.90;;;;;;5090621;28;20212;-81
2024/01/22 00:24:02;;;;;;;3.00;2.03;;;7.60;99.90;;;;;;5088564;28;20224;-80
2024/01/22 00:26:29;;;;;;;3.33;2.03;;;7.80;99.90;;;;;;5092449;28;20192;-80
2024/01/22 00:28:57;;;;;;;4.80;1.93;;;7.80;99.90;;;;;;5082910;28;20240;-80
2024/01/22 00:31:25;;;;;;;3.47;2.60;;;7.80;99.90;;;;;;5086965;28;20220;-80
2024/01/22 00:33:53;;;;;;;3.67;2.13;;;7.80;99.90;;;;;;5090547;28;20710;-80
2024/01/22 00:36:20;;;;;;;4.00;2.37;;;7.90;99.90;;;;;;5089411;28;20197;-80
2024/01/22 00:38:48;;;;;;;3.70;2.03;;;7.90;99.90;;;;;;5089014;28;20204;-81
2024/01/22 00:41:15;;;;;;;3.03;2.33;;;7.90;99.90;;;;;;5080067;28;20220;-80
2024/01/22 00:43:43;;;;;;;2.97;2.37;;;8.00;99.90;;;;;;5079946;28;20208;-80
2024/01/22 00:46:12;;;;;;;4.20;2.40;;;8.00;99.90;;;;;;5097080;28;20661;-80
2024/01/22 00:48:41;;;;;;;4.17;2.17;;;8.00;99.90;;;;;;5082261;28;20279;-80
2024/01/22 00:51:10;;;;;;;3.20;2.00;;;8.00;99.90;;;;;;5112894;28;20204;-80
2024/01/22 00:53:38;;;;;;;3.53;1.60;;;8.10;99.90;;;;;;5084856;28;20207;-80
2024/01/22 00:56:06;;;;;;;2.30;1.93;;;8.00;99.90;;;;;;5085954;28;20201;-80
2024/01/22 00:58:33;;;;;;;2.57;1.90;;;8.10;99.90;;;;;;5093959;28;20197;-80
2024/01/22 01:01:01;;;;;;;2.87;1.80;;;8.20;99.90;;;;;;5088040;28;20204;-79
2024/01/22 01:03:28;;;;;;;2.37;2.10;;;8.20;99.90;;;;;;5089743;28;20586;-80
2024/01/22 01:05:57;;;;;;;3.87;2.13;;;8.20;99.90;;;;;;5112901;28;20223;-80
2024/01/22 01:08:24;;;;;;;2.47;1.90;;;8.20;99.90;;;;;;5081493;28;20582;-80
2024/01/22 01:10:52;;;;;;;3.53;2.50;;;8.20;99.90;;;;;;5099499;28;20211;-80
2024/01/22 01:13:22;;;;;;;2.10;1.90;;;8.30;99.90;;;;;;5096830;28;20193;-80
2024/01/22 01:15:49;;;;;;;2.43;2.00;;;8.20;99.90;;;;;;5101752;28;20213;-80
2024/01/22 01:18:16;;;;;;;3.87;2.20;;;8.20;99.90;;;;;;5101087;28;20200;-80
2024/01/22 01:20:53;;;;;;;3.97;1.70;;;8.30;99.90;;;;;;5085020;28;20193;-80
2024/01/22 01:23:22;;;;;;;7.03;2.27;;;8.20;99.90;;;;;;5090396;28;20588;-80
2024/01/22 01:25:49;;;;;;;3.43;2.23;;;8.30;99.90;;;;;;5084491;28;20240;-80
2024/01/22 01:28:17;;;;;;;4.03;2.00;;;8.30;99.90;;;;;;5094314;28;20197;-81
2024/01/22 01:30:44;;;;;;;3.60;2.00;;;8.30;99.90;;;;;;5080443;28;20223;-80
2024/01/22 01:33:12;;;;;;;3.63;2.23;;;8.30;99.90;;;;;;5080964;28;20551;-80
2024/01/22 01:35:43;;;;;;;4.50;2.20;;;8.30;99.90;;;;;;5099902;28;20550;-80
2024/01/22 01:38:11;;;;;;;4.60;2.13;;;8.30;99.90;;;;;;5080820;28;20209;-80
2024/01/22 01:40:42;;;;;;;3.20;1.90;;;8.30;99.90;;;;;;5077671;28;20202;-80
2024/01/22 01:43:10;;;;;;;3.77;2.13;;;8.50;99.90;;;;;;5083419;28;20193;-80
2024/01/22 01:45:37;;;;;;;3.73;2.03;;;8.50;99.90;;;;;;5088415;28;20232;-81
2024/01/22 01:48:07;;;;;;;3.60;2.00;;;8.40;99.90;;;;;;5106294;28;20197;-80
2024/01/22 01:50:35;;;;;;;5.03;2.30;;;8.50;99.90;;;;;;5074075;28;20212;-80
2024/01/22 01:53:03;;;;;;;2.20;1.80;;;8.50;99.90;;;;;;5111168;28;20188;-80
2024/01/22 01:55:31;;;;;;;2.27;2.07;;;8.60;99.90;;;;;;5096130;28;20298;-80
2024/01/22 01:58:02;;;;;;;2.40;1.93;;;8.70;99.90;;;;;;5082841;28;20202;-80
2024/01/22 02:00:30;;;;;;;2.10;1.50;;;8.60;99.90;;;;;;5081837;28;20550;-80
2024/01/22 02:02:58;;;;;;;2.37;1.77;;;8.70;99.90;;;;;;5079995;28;20200;-80
2024/01/22 02:05:25;;;;;;;2.43;1.60;;;8.60;99.90;;;;;;5093547;28;20224;-80
2024/01/22 02:07:53;;;;;;;4.50;1.90;;;8.70;99.90;;;;;;5075442;28;20207;-80
2024/01/22 02:10:20;;;;;;;3.07;1.90;;;8.70;99.90;;;;;;5076240;28;20224;-80
2024/01/22 02:12:47;;;;;;;2.20;1.57;;;8.70;99.90;;;;;;5076368;28;20562;-80
2024/01/22 02:15:16;;;;;;;2.43;2.00;;;8.80;99.90;;;;;;5076198;28;20413;-80
2024/01/22 02:17:44;;;;;;;2.37;1.67;;;8.70;99.90;;;;;;5075685;28;20215;-80
2024/01/22 02:20:12;;;;;;;2.17;1.57;;;8.90;99.90;;;;;;5075599;28;20193;-80
2024/01/22 02:22:40;;;;;;;2.13;1.53;;;8.80;99.90;;;;;;5075455;28;20678;-80
2024/01/22 02:25:09;;;;;;;3.10;1.70;;;8.80;99.90;;;;;;5071664;28;20214;-80
2024/01/22 02:27:37;;;;;;;2.27;1.10;;;8.80;99.90;;;;;;5087631;28;20181;-80
2024/01/22 02:30:05;;;;;;;3.30;1.53;;;9.00;99.90;;;;;;5072685;28;20216;-79
2024/01/22 02:32:32;;;;;;;1.43;1.30;;;8.90;99.90;;;;;;5072042;28;20202;-80
2024/01/22 02:35:00;;;;;;;1.70;1.60;;;8.90;99.90;;;;;;5080888;28;20225;-79
2024/01/22 02:37:27;;;;;;;2.67;1.40;;;9.00;99.90;;;;;;5101337;28;20193;-80
2024/01/22 02:39:55;;;;;;;2.70;1.50;;;9.10;99.90;;;;;;5100057;28;20193;-79
2024/01/22 02:42:24;;;;;;;2.23;1.50;;;9.10;99.90;;;;;;5081800;28;20207;-79
2024/01/22 02:44:51;;;;;;;1.30;1.20;;;9.00;99.90;;;;;;5086172;28;20229;-79
2024/01/22 02:47:19;;;;;;;1.33;1.17;;;8.90;99.90;;;;;;5077131;28;20689;-80
2024/01/22 02:49:46;;;;;;;2.43;1.63;;;9.00;99.90;;;;;;5082463;28;20200;-80
2024/01/22 02:52:13;;;;;;;1.97;1.50;;;9.10;99.90;;;;;;5095474;28;20193;-80
2024/01/22 02:54:41;;;;;;;2.27;1.40;;;9.10;99.90;;;;;;5083180;28;20228;-80
2024/01/22 02:57:51;;;;;;;1.87;1.43;;;9.20;99.90;;;;;;5096491;28;20191;-80
2024/01/22 03:00:20;;;;;;;2.43;1.10;;;9.10;99.90;;;;;;5097664;28;20196;-79
2024/01/22 03:02:47;;;;;;;1.40;1.30;;;9.20;99.90;;;;;;5078434;28;20200;-80
2024/01/22 03:05:15;;;;;;;1.77;1.20;;;9.20;99.90;;;;;;5090409;28;20213;-79
2024/01/22 03:07:42;;;;;;;2.00;1.30;;;9.10;99.90;;;;;;5088996;28;20235;-80
2024/01/22 03:10:10;;;;;;;2.50;1.37;;;9.30;99.90;;;;;;5079060;28;20233;-80
2024/01/22 03:12:37;;;;;;;1.70;1.40;;;9.20;99.90;;;;;;5085925;28;20206;-80
2024/01/22 03:15:06;;;;;;;3.10;1.13;;;9.30;99.90;;;;;;5077680;28;20224;-80
2024/01/22 03:17:34;;;;;;;2.80;1.63;;;9.20;99.90;;;;;;5074470;28;20200;-80
2024/01/22 03:20:02;;;;;;;2.27;1.63;;;9.20;99.90;;;;;;5083399;28;20199;-80
2024/01/22 03:22:29;;;;;;;1.90;1.73;;;9.20;99.90;;;;;;5083000;28;20197;-80
2024/01/22 03:24:56;;;;;;;3.87;1.13;;;9.20;99.90;;;;;;5079595;28;20224;-80
2024/01/22 03:27:24;;;;;;;3.10;1.30;;;9.20;99.90;;;;;;5075510;28;20200;-79
2024/01/22 03:29:51;;;;;;;1.40;1.10;;;9.20;99.90;;;;;;5075103;28;20197;-80
2024/01/22 03:32:19;;;;;;;2.13;1.17;;;9.20;99.90;;;;;;5085077;28;20682;-80
2024/01/22 03:34:48;;;;;;;1.63;1.30;;;9.30;99.90;;;;;;5081753;28;20239;-79
2024/01/22 03:37:15;;;;;;;2.63;1.17;;;9.30;99.90;;;;;;5078162;28;20189;-80
2024/01/22 03:39:42;;;;;;;2.03;1.50;;;9.20;99.90;;;;;;5077380;28;20201;-80
2024/01/22 03:42:11;;;;;;;2.10;1.20;;;9.20;99.90;;;;;;5075932;28;20212;-80
2024/01/22 03:44:39;;;;;;;0.80;0.80;;;9.30;99.90;;;;;;5101531;28;20205;-79
2024/01/22 03:47:07;;;;;;;2.57;1.20;;;9.30;99.90;;;;;;5070241;28;20196;-80
2024/01/22 03:49:34;;;;;;;1.50;1.10;;;9.30;99.90;;;;;;5085369;28;20200;-80
2024/01/22 03:52:03;;;;;;;1.40;1.30;;;9.40;99.90;;;;;;5084556;28;20213;-80
2024/01/22 03:54:30;;;;;;;1.87;1.43;;;9.30;99.90;;;;;;5086660;28;20235;-80
2024/01/22 03:56:58;;;;;;;1.63;1.10;;;9.20;99.90;;;;;;5072903;28;20212;-80
2024/01/22 03:59:27;;;;;;;3.23;1.10;;;9.20;99.90;;;;;;5083817;28;20207;-80
2024/01/22 04:01:56;;;;;;;1.40;1.30;;;9.20;99.90;;;;;;5080689;28;20200;-80
2024/01/22 04:04:23;;;;;;;3.70;1.70;;;9.20;99.90;;;;;;5083559;28;20697;-80
2024/01/22 04:06:50;;;;;;;2.60;1.47;;;9.10;99.90;;;;;;5076136;28;20211;-80
2024/01/22 04:09:19;;;;;;;1.50;1.40;;;9.10;99.90;;;;;;5103669;28;20204;-80
2024/01/22 04:11:47;;;;;;;1.70;1.30;;;9.10;99.90;;;;;;5076154;28;20224;-80
2024/01/22 04:14:14;;;;;;;2.70;1.30;;;9.10;99.90;;;;;;5075595;28;20682;-80
2024/01/22 04:16:42;;;;;;;1.83;1.50;;;9.10;99.90;;;;;;5071939;28;20212;-80
2024/01/22 04:19:09;;;;;;;1.30;1.20;;;9.10;99.90;;;;;;5079918;28;20208;-80
2024/01/22 04:21:44;;;;;;;1.93;1.43;;;9.10;99.90;;;;;;5087295;28;20556;-80
2024/01/22 04:24:12;;;;;;;1.47;1.10;;;9.10;99.90;;;;;;5083369;28;20220;-80
2024/01/22 04:26:41;;;;;;;2.07;1.70;;;9.10;99.90;;;;;;5083456;28;20205;-80
2024/01/22 04:29:08;;;;;;;2.13;1.50;;;9.20;99.90;;;;;;5111114;28;20196;-80
2024/01/22 04:31:37;;;;;;;2.07;1.53;;;9.10;99.90;;;;;;5101018;28;20205;-79
2024/01/22 04:34:04;;;;;;;1.83;1.30;;;9.10;99.90;;;;;;5079973;28;20392;-80
2024/01/22 04:36:32;;;;;;;1.93;1.73;;;9.10;99.90;;;;;;5086487;28;20200;-80
2024/01/22 04:38:59;;;;;;;3.33;1.30;;;9.20;99.90;;;;;;5077968;28;20200;-80
2024/01/22 04:41:27;;;;;;;1.60;1.00;;;9.20;99.90;;;;;;5110359;28;20188;-80
2024/01/22 04:43:56;;;;;;;1.83;1.20;;;9.20;99.90;;;;;;5092627;28;20236;-80
2024/01/22 04:46:27;;;;;;;1.57;1.27;;;9.30;99.90;;;;;;5080501;28;20203;-80
2024/01/22 04:48:55;;;;;;;2.07;1.00;;;9.30;99.90;;;;;;5076864;28;20201;-80
2024/01/22 04:51:22;;;;;;;1.43;1.17;;;9.30;99.90;;;;;;5106466;28;20716;-80
2024/01/22 04:53:49;;;;;;;2.10;1.23;;;9.30;99.90;;;;;;5085506;28;20211;-80
2024/01/22 04:56:17;;;;;;;1.70;1.47;;;9.30;99.90;;;;;;5093579;28;20185;-80
2024/01/22 04:58:44;;;;;;;1.30;1.03;;;9.30;99.90;;;;;;5087581;28;20724;-80
2024/01/22 05:01:14;;;;;;;1.83;1.10;;;9.40;99.90;;;;;;5078718;28;20197;-80
2024/01/22 05:03:41;;;;;;;1.93;1.10;;;9.30;99.90;;;;;;5079639;28;20212;-80
2024/01/22 05:06:08;;;;;;;2.30;1.23;;;9.40;99.90;;;;;;5106154;28;20560;-80
2024/01/22 05:08:36;;;;;;;1.57;1.00;;;9.30;99.90;;;;;;5090566;28;20200;-80
2024/01/22 05:11:03;;;;;;;2.40;1.20;;;9.40;99.90;;;;;;5100808;28;20201;-80
2024/01/22 05:13:31;;;;;;;1.23;0.90;;;9.40;99.90;;;;;;5112074;28;20197;-80
2024/01/22 05:15:58;;;;;;;1.20;1.00;;;9.50;99.90;;;;;;5086855;28;20227;-80
2024/01/22 05:18:27;;;;;;;1.13;0.70;;;9.50;99.90;;;;;;5090576;28;20196;-80
2024/01/22 05:20:54;;;;;;;1.77;0.87;;;9.50;99.90;;;;;;5084548;28;20668;-80
2024/01/22 05:23:22;;;;;;;1.27;1.07;;;9.50;99.90;;;;;;5081397;28;20201;-80
2024/01/22 05:25:49;;;;;;;1.47;1.07;;;9.50;99.90;;;;;;5089477;28;20227;-79
2024/01/22 05:28:17;;;;;;;2.20;1.30;;;9.40;99.90;;;;;;5089543;28;20205;-79
2024/01/22 05:30:44;;;;;;;1.80;1.00;;;9.50;99.90;;;;;;5077196;28;20212;-80
2024/01/22 05:33:12;;;;;;;2.40;0.90;;;9.40;99.90;;;;;;5097445;28;20231;-80
2024/01/22 05:35:41;;;;;;;1.77;1.20;;;9.40;99.90;;;;;;5090022;28;20231;-80
2024/01/22 05:38:08;;;;;;;1.20;1.10;;;9.40;99.90;;;;;;5088298;28;20207;-80
2024/01/22 05:40:36;;;;;;;1.90;1.37;;;9.40;99.90;;;;;;5085154;28;20204;-80
2024/01/22 05:43:03;;;;;;;1.53;0.87;;;9.50;99.90;;;;;;5094834;28;20558;-80
2024/01/22 05:45:31;;;;;;;3.57;1.30;;;9.50;99.90;;;;;;5086095;28;20235;-80
2024/01/22 05:47:58;;;;;;;1.37;1.20;;;9.50;99.90;;;;;;5079659;28;20209;-80
2024/01/22 05:50:25;;;;;;;1.10;1.00;;;9.50;99.90;;;;;;5091896;28;20204;-80
2024/01/22 05:52:54;;;;;;;2.50;1.20;;;9.50;99.90;;;;;;5098202;28;20212;-80
2024/01/22 05:55:22;;;;;;;2.60;1.17;;;9.60;99.90;;;;;;5099390;28;20209;-80
2024/01/22 05:57:49;;;;;;;1.20;1.10;;;9.60;99.90;;;;;;5085844;28;20651;-80
2024/01/22 06:00:18;;;;;;;2.27;0.80;;;9.60;99.90;;;;;;5083018;28;20200;-80
2024/01/22 06:02:48;;;;;;;2.37;1.20;;;9.60;99.90;;;;;;5081278;28;21482;-80
2024/01/22 06:05:15;;;;;;;2.10;1.10;;;9.60;99.90;;;;;;5080552;28;20228;-80
2024/01/22 06:07:43;;;;;;;1.07;1.00;;;9.70;99.90;;;;;;5071439;28;20196;-80
2024/01/22 06:10:12;;;;;;;2.43;1.10;;;9.70;99.90;;;;;;5090695;28;20545;-80
2024/01/22 06:12:39;;;;;;;1.50;1.03;;;9.70;99.90;;;;;;5086061;28;20694;-80
2024/01/22 06:15:08;;;;;;;1.77;1.33;;;9.60;99.90;;;;;;5101200;28;20224;-80
2024/01/22 06:17:35;;;;;;;1.70;1.33;;;9.70;99.90;;;;;;5074099;28;20224;-80
2024/01/22 06:20:03;;;;;;;2.77;1.20;;;9.70;99.90;;;;;;5104817;28;20192;-80
2024/01/22 06:22:33;;;;;;;1.80;0.90;;;9.80;99.90;;;;;;5106575;28;20658;-80
2024/01/22 06:25:03;;;;;;;2.77;1.10;;;9.80;99.90;;;;;;5084138;28;20228;-80
2024/01/22 06:27:32;;;;;;;1.70;0.83;;;9.70;99.90;;;;;;5086550;28;20201;-79
2024/01/22 06:30:00;;;;;;;1.03;1.03;;;9.70;99.90;;;;;;5080297;28;20208;-80
2024/01/22 06:32:27;;;;;;;1.20;1.10;;;9.80;99.90;;;;;;5078355;28;20223;-80
2024/01/22 06:34:55;;;;;;;2.70;1.30;;;9.90;99.90;;;;;;5086039;28;20592;-80
2024/01/22 06:37:24;;;;;;;1.77;1.20;;;9.90;99.90;;;;;;5081235;28;20208;-80
2024/01/22 06:39:52;;;;;;;3.70;1.57;;;9.80;99.90;;;;;;5074967;28;20197;-80
2024/01/22 06:42:22;;;;;;;1.17;1.07;;;9.90;99.90;;;;;;5076639;28;20189;-80
2024/01/22 06:44:51;;;;;;;2.40;1.20;;;9.90;99.90;;;;;;5083978;28;20248;-80
2024/01/22 06:47:18;;;;;;;1.53;1.10;;;9.90;99.90;;;;;;5078389;28;20200;-80
2024/01/22 06:49:45;;;;;;;2.40;1.30;;;10.00;99.90;;;;;;5095691;28;20192;-80
2024/01/22 06:52:13;;;;;;;1.10;1.00;;;10.00;99.90;;;;;;5077771;28;20213;-80
2024/01/22 06:54:40;;;;;;;1.00;0.90;;;10.20;99.90;;;;;;5073219;28;20221;-80
2024/01/22 06:57:08;;;;;;;2.27;1.10;;;10.10;99.90;;;;;;5094018;28;20204;-80
2024/01/22 06:59:35;;;;;;;2.40;1.20;;;10.20;99.90;;;;;;5072463;28;20201;-77
2024/01/22 07:02:09;;;;;;;2.03;1.03;;;10.60;99.90;;;;;;5080228;28;20200;-77
2024/01/22 07:04:43;;;;;;;2.07;0.90;;;10.60;99.90;;;;;;5080183;28;20228;-80
2024/01/22 07:07:10;;;;;;;1.47;0.90;;;10.50;99.90;;;;;;5076277;28;20213;-80
2024/01/22 07:09:39;;;;;;;1.87;1.10;;;10.40;99.90;;;;;;5081971;28;20200;-80
2024/01/22 07:12:07;;;;;;;1.40;0.70;;;10.50;99.90;;;;;;5071049;28;20214;-80
2024/01/22 07:14:35;;;;;;;1.43;0.90;;;10.60;99.90;;;;;;5083311;28;20220;-80
2024/01/22 07:17:04;;;;;;;1.37;0.97;;;10.50;99.90;;;;;;5079726;28;20211;-80
2024/01/22 07:19:37;;;;;;;2.57;1.07;;;10.60;99.90;;;;;;5080545;28;20211;-80
2024/01/22 07:22:05;;;;;;;1.70;0.93;;;10.70;99.90;;;;;;5095063;28;20189;-80
2024/01/22 07:24:32;;;;;;;2.10;1.20;;;10.80;99.90;;;;;;5076730;28;20228;-81
2024/01/22 07:27:00;;;;;;;1.40;1.17;;;10.80;99.90;;;;;;5077372;28;20212;-81
2024/01/22 07:29:27;;;;;;;2.40;1.30;;;10.80;99.90;;;;;;5104374;28;20197;-81
2024/01/22 07:31:54;;;;;;;3.47;1.00;;;10.80;99.90;;;;;;5093097;28;20559;-81
2024/01/22 07:34:22;;;;;;;2.13;1.40;;;10.80;99.90;;;;;;5099937;28;20588;-81
2024/01/22 07:36:50;;;;;;;4.53;1.83;;;10.80;99.90;;;;;;5081611;28;20220;-81
2024/01/22 07:39:18;;;;;;;2.40;1.10;;;10.80;99.90;;;;;;5077899;28;20220;-81
2024/01/22 07:41:45;;;;;;;1.40;0.90;;;10.80;99.90;;;;;;5083463;28;20205;-81
2024/01/22 07:44:13;;;;;;;1.43;0.90;;;10.80;99.90;;;;;;5078884;28;20220;-81
2024/01/22 07:46:40;;;;;;;3.57;0.80;;;10.80;99.90;;;;;;5077578;28;20728;-81
2024/01/22 07:49:08;;;;;;;2.33;1.13;;;11.00;99.90;;;;;;5076190;28;20204;-81
2024/01/22 07:51:36;;;;;;;1.70;0.93;;;11.00;99.90;;;;;;5075985;28;20208;-81
2024/01/22 07:54:05;;;;;;;1.37;0.60;;;11.10;99.90;;;;;;5076005;28;20225;-81
2024/01/22 07:56:33;;;;;;;1.30;0.90;;;11.10;99.90;;;;;;5103503;28;20197;-81
2024/01/22 07:59:00;;;;;;;2.63;0.83;;;11.20;99.90;;;;;;5087891;28;20667;-82
2024/01/22 08:01:27;;;;;;;2.07;0.90;;;11.30;99.90;;;;;;5080335;28;20201;-79
2024/01/22 08:03:55;;;;;;;0.83;0.60;;;11.40;99.90;;;;;;5073312;28;20228;-81
2024/01/22 08:06:22;;;;;;;2.00;0.83;;;11.60;99.90;;;;;;5087132;28;20200;-81
2024/01/22 08:08:50;;;;;;;1.03;0.63;;;11.60;99.90;;;;;;5089136;28;20205;-80
2024/01/22 08:11:19;;;;;;;0.77;0.60;;;11.70;99.90;;;;;;5085512;28;20197;-80
2024/01/22 08:13:46;;;;;;;1.13;0.73;;;11.70;99.90;;;;;;5083088;28;20225;-80
2024/01/22 08:16:14;;;;;;;1.93;0.70;;;11.80;99.90;;;;;;5084736;28;20207;-80
2024/01/22 08:18:41;;;;;;;2.00;0.70;;;11.70;99.90;;;;;;5080067;28;20689;-80
2024/01/22 08:21:09;;;;;;;0.93;0.67;;;11.60;99.90;;;;;;5080358;28;20193;-81
2024/01/22 08:23:36;;;;;;;1.00;0.50;;;11.50;99.90;;;;;;5078280;28;20197;-77
2024/01/22 08:26:04;;;;;;;1.37;0.80;;;11.70;99.90;;;;;;5077560;28;20196;-76
2024/01/22 08:28:32;;;;;;;2.50;0.93;;;11.70;99.90;;;;;;5095750;28;20189;-77
2024/01/22 08:31:00;;;;;;;1.77;0.70;;;11.60;99.90;;;;;;5094845;28;20196;-81
2024/01/22 08:33:27;;;;;;;0.77;0.63;;;11.60;99.90;;;;;;5094314;28;20205;-79
2024/01/22 08:35:55;;;;;;;1.23;0.70;;;11.60;99.90;;;;;;5078661;28;20225;-80
2024/01/22 08:38:22;;;;;;;1.87;0.70;;;11.70;99.90;;;;;;5081256;28;20568;-79
2024/01/22 08:40:52;;;;;;;1.93;0.90;;;11.60;99.90;;;;;;5078796;28;20202;-80
2024/01/22 08:43:19;;;;;;;1.47;0.90;;;11.70;99.90;;;;;;5076713;28;20197;-80
2024/01/22 08:45:48;;;;;;;1.13;0.67;;;11.70;99.90;;;;;;5077695;28;20226;-81
2024/01/22 08:48:15;;;;;;;1.00;0.70;;;11.80;99.90;;;;;;5079777;28;20201;-81
2024/01/22 08:50:44;;;;;;;1.47;0.80;;;11.70;99.90;;;;;;5082868;28;20208;-80
2024/01/22 08:53:11;;;;;;;1.98;0.60;;;11.60;99.90;;;;;;5080543;28;20220;-82
2024/01/22 08:55:39;;;;;;;0.67;0.53;;;11.60;99.90;;;;;;5099843;28;20220;-81
2024/01/22 08:58:10;;;;;;;2.67;0.82;;;11.70;99.90;;;;;;5089676;28;20201;-81
2024/01/22 09:00:47;;;;;;;0.47;0.47;;;11.70;99.90;;;;;;5080195;28;20216;-81
2024/01/22 09:03:15;;;;;;;1.10;0.70;;;11.60;99.90;;;;;;5112340;28;20193;-81
2024/01/22 09:05:43;;;;;;;2.77;1.13;;;11.60;99.90;;;;;;5076199;28;20221;-81
2024/01/22 09:08:15;;;;;;;0.60;0.60;;;11.60;99.90;;;;;;5078530;28;20194;-81
2024/01/22 09:10:49;;;;;;;0.90;0.70;;;11.60;99.90;;;;;;5095845;28;20185;-81
2024/01/22 09:13:16;;;;;;;2.40;0.97;;;11.50;99.90;;;;;;5078459;28;20213;-81
2024/01/22 09:15:44;;;;;;;0.77;0.70;;;11.60;99.90;;;;;;5078145;28;20228;-81
2024/01/22 09:18:11;;;;;;;3.90;0.97;;;11.60;99.90;;;;;;5091866;28;20193;-82
2024/01/22 09:20:41;;;;;;;4.50;0.75;;;11.60;99.90;;;;;;5083887;28;20197;-81
2024/01/22 09:23:08;;;;;;;2.43;1.00;;;11.60;99.90;;;;;;5096677;28;20188;-81
2024/01/22 09:25:36;;;;;;;1.08;0.90;;;11.60;99.90;;;;;;5083086;28;20232;-81
2024/01/22 09:28:04;;;;;;;1.90;0.70;;;11.70;99.90;;;;;;5086865;28;20204;-81
2024/01/22 09:30:32;;;;;;;2.50;0.93;;;11.60;99.90;;;;;;5084184;28;20197;-80
2024/01/22 09:32:59;;;;;;;2.97;0.83;;;11.60;99.90;;;;;;5079352;28;20197;-81
2024/01/22 09:35:27;;;;;;;1.27;1.08;;;11.50;99.90;;;;;;5075158;28;20224;-80
2024/01/22 09:37:56;;;;;;;2.70;0.93;;;11.40;99.90;;;;;;5083570;28;20205;-80
2024/01/22 09:40:28;;;;;;;2.00;0.80;;;11.50;99.90;;;;;;5081028;28;20204;-81
2024/01/22 09:43:04;;;;;;;2.17;0.77;;;11.50;99.90;;;;;;5079433;28;20192;-80
2024/01/22 09:45:34;;;;;;;2.73;1.00;;;11.60;99.90;;;;;;5079396;28;20212;-81
2024/01/22 09:48:03;;;;;;;1.77;1.00;;;11.60;99.90;;;;;;5072925;28;20208;-80
2024/01/22 09:50:31;;;;;;;1.33;0.77;;;11.70;99.90;;;;;;5099130;28;20197;-82
2024/01/22 09:53:05;;;;;;;2.83;1.20;;;11.60;99.90;;;;;;5082760;28;20205;-81
2024/01/22 09:55:33;;;;;;;2.77;0.90;;;11.80;99.90;;;;;;5080609;28;20223;-80
2024/01/22 09:58:03;;;;;;;3.53;1.13;;;11.80;99.90;;;;;;5078353;28;20197;-78
2024/01/22 10:00:31;;;;;;;3.65;1.25;;;11.80;99.90;;;;;;5077100;28;20201;-79
2024/01/22 10:03:00;;;;;;;2.30;0.90;;;11.90;99.90;;;;;;5075969;28;20201;-79
2024/01/22 10:05:32;;;;;;;5.10;1.35;;;12.00;99.90;;;;;;5066597;28;20213;-79
2024/01/22 10:08:01;;;;;;;4.97;1.35;;;12.00;99.90;;;;;;5076788;28;20197;-79
2024/01/22 10:10:28;;;;;;;2.72;1.10;;;12.00;99.90;;;;;;5075793;28;20197;-79
2024/01/22 10:13:04;;;;;;;2.83;1.10;;;12.00;99.90;;;;;;5077904;28;20197;-80
2024/01/22 10:15:32;;;;;;;5.03;1.42;;;12.00;99.90;;;;;;5077101;28;20223;-80
2024/01/22 10:18:11;;;;;;;2.80;1.23;;;12.10;99.90;;;;;;5077149;28;20549;-80
2024/01/22 10:20:39;;;;;;;3.57;2.03;;;12.10;99.90;;;;;;5075659;28;20204;-79
2024/01/22 10:23:09;;;;;;;4.55;1.17;;;12.10;99.90;;;;;;5077444;28;20201;-80
2024/01/22 10:25:36;;;;;;;3.55;1.23;;;12.20;99.90;;;;;;5074427;28;20226;-80
2024/01/22 10:28:16;;;;;;;5.22;1.30;;;12.20;99.90;;;;;;5076601;28;20200;-80
2024/01/22 10:30:45;;;;;;;4.00;1.70;;;12.20;99.90;;;;;;5074947;28;20226;-80
2024/01/22 10:33:16;;;;;;;3.65;1.45;;;12.10;99.90;;;;;;5080163;28;20208;-80
2024/01/22 10:35:45;;;;;;;6.43;1.75;;;12.00;99.90;;;;;;5073842;28;20229;-79
2024/01/22 10:38:16;;;;;;;6.13;1.80;;;12.20;99.90;;;;;;5096617;28;20196;-79
2024/01/22 10:40:46;;;;;;;3.95;1.63;;;12.10;99.90;;;;;;5080603;28;20197;-80
2024/01/22 10:43:21;;;;;;;3.35;1.50;;;12.20;99.90;;;;;;5078510;28;20194;-80
2024/01/22 10:45:49;;;;;;;6.13;1.38;;;12.20;99.90;;;;;;5096953;28;20209;-80
2024/01/22 10:48:18;;;;;;;5.57;1.63;;;12.30;99.90;;;;;;5077587;28;20565;-80
2024/01/22 10:50:50;;;;;;;10.38;1.85;;;12.30;99.90;;;;;;5077429;28;20204;-79
2024/01/22 10:53:21;;;;;;;4.97;1.83;;;12.30;99.90;;;;;;5078910;28;20208;-79
2024/01/22 10:55:58;;;;;;;5.70;1.73;;;12.30;99.90;;;;;;5072874;28;20213;-79
2024/01/22 10:58:28;;;;;;;3.38;1.20;;;12.30;99.90;;;;;;5075335;28;20200;-79
2024/01/22 11:01:01;;;;;;;3.92;1.40;;;12.40;99.90;;;;;;5075019;28;20208;-79
2024/01/22 11:03:29;;;;;;;4.35;1.40;;;12.30;99.90;;;;;;5090148;28;20196;-80
2024/01/22 11:06:00;;;;;;;3.67;1.83;;;12.40;99.90;;;;;;5080872;28;20220;-79
2024/01/22 11:08:31;;;;;;;6.57;1.85;;;12.40;99.90;;;;;;5074942;28;20205;-79
2024/01/22 11:10:59;;;;;;;4.22;1.50;;;12.50;99.90;;;;;;5072413;28;20581;-79
2024/01/22 11:13:28;;;;;;;4.38;1.48;;;12.50;99.90;;;;;;5092705;28;20189;-79
2024/01/22 11:15:56;;;;;;;5.22;1.83;;;12.50;99.90;;;;;;5075745;28;20232;-79
2024/01/22 11:18:26;;;;;;;3.10;1.40;;;12.40;99.90;;;;;;5081122;28;20581;-79
2024/01/22 11:21:20;;;;;;;3.70;1.83;;;12.40;99.90;;;;;;5076211;28;20193;-79
2024/01/22 11:24:23;;;;;;;3.25;1.30;;;12.50;99.90;;;;;;5072756;28;20655;-79
2024/01/22 11:27:07;;;;;;;4.07;1.20;;;12.40;99.90;;;;;;4980292;28;20694;-79
2024/01/22 11:29:36;;;;;;;5.97;1.25;;;12.50;99.90;;;;;;4978790;28;20188;-79
2024/01/22 11:32:28;;;;;;;3.60;0.88;;;12.50;99.90;;;;;;5032574;28;20197;-79
2024/01/22 11:34:59;;;;;;;6.22;1.65;;;12.70;99.90;;;;;;5076813;28;20228;-79
2024/01/22 11:37:35;;;;;;;5.90;1.40;;;12.50;99.90;;;;;;5080157;28;20208;-79
2024/01/22 11:40:07;;;;;;;3.70;1.10;;;12.30;99.90;;;;;;5076219;28;20196;-79
2024/01/22 11:42:35;;;;;;;4.53;1.30;;;12.40;99.90;;;;;;5080307;28;20196;-80
2024/01/22 11:45:11;;;;;;;6.13;1.40;;;12.30;99.90;;;;;;5095032;28;20591;-80
2024/01/22 11:47:39;;;;;;;3.22;1.20;;;12.40;99.90;;;;;;5104256;28;20200;-81
2024/01/22 11:50:08;;;;;;;2.40;0.88;;;12.30;99.90;;;;;;5088140;28;20196;-81
2024/01/22 11:52:37;;;;;;;2.50;1.08;;;12.10;99.90;;;;;;5090816;28;20205;-81
2024/01/22 11:55:07;;;;;;;5.30;1.10;;;12.00;99.90;;;;;;5081115;28;20220;-80
2024/01/22 11:57:38;;;;;;;3.40;1.10;;;11.90;99.90;;;;;;5102591;28;20189;-80
2024/01/22 12:00:09;;;;;;;3.53;1.30;;;11.80;99.90;;;;;;5084574;28;20199;-80
2024/01/22 12:02:48;;;;;;;1.87;1.00;;;11.80;99.90;;;;;;5083100;28;20212;-80
2024/01/22 12:05:26;;;;;;;4.00;1.40;;;11.70;99.90;;;;;;5098593;28;20290;-80
2024/01/22 12:07:53;;;;;;;6.13;1.40;;;11.70;99.90;;;;;;5081810;28;20196;-80
2024/01/22 12:10:36;;;;;;;6.90;1.67;;;11.20;99.90;;;;;;5081266;28;20201;-80
2024/01/22 12:13:05;;;;;;;7.00;2.03;;;10.30;99.90;;;;;;5082103;28;20200;-79
2024/01/22 12:15:39;;;;;;;6.47;1.70;;;9.90;99.90;;;;;;5083270;28;20216;-79
2024/01/22 12:18:07;;;;;;;6.40;1.83;;;9.70;99.90;;;;;;5081370;28;20208;-79
2024/01/22 12:20:34;;;;;;;8.50;2.70;;;9.70;99.90;;;;;;5081976;28;20219;-79
2024/01/22 12:23:09;;;;;;;8.47;2.20;;;9.60;99.90;;;;;;5085348;28;20196;-79
2024/01/22 12:25:39;;;;;;;8.07;2.00;;;9.40;99.90;;;;;;5090508;28;20698;-79
2024/01/22 12:28:11;;;;;;;10.83;2.97;;;9.60;99.90;;;;;;5081847;28;20208;-79
2024/01/22 12:30:39;;;;;;;13.23;2.80;;;9.50;99.90;;;;;;5079004;28;20205;-79
2024/01/22 12:33:06;;;;;;;10.67;2.80;;;9.50;99.90;;;;;;5081048;28;20193;-79
2024/01/22 12:35:34;;;;;;;10.03;2.60;;;9.50;99.90;;;;;;5099635;28;20228;-80
2024/01/22 12:38:11;;;;;;;9.50;3.50;;;9.60;99.90;;;;;;5082931;28;20563;-80
2024/01/22 12:41:00;;;;;;;11.73;2.60;;;9.70;99.90;;;;;;5097892;28;20534;-79
2024/01/22 12:43:28;;;;;;;13.70;3.37;;;9.70;99.90;;;;;;5084591;28;20200;-80
2024/01/22 12:46:05;;;;;;;14.17;3.23;;;9.70;99.90;;;;;;5083278;28;20212;-79
2024/01/22 12:48:32;;;;;;;11.27;3.20;;;9.80;99.90;;;;;;5082584;28;20204;-79
2024/01/22 12:50:59;;;;;;;16.57;3.20;;;9.70;99.90;;;;;;5084892;28;20204;-79
2024/01/22 12:53:27;;;;;;;9.70;2.70;;;9.70;99.90;;;;;;5079951;28;20193;-79
2024/01/22 12:55:54;;;;;;;15.23;3.30;;;9.70;99.90;;;;;;5095009;28;20224;-79
2024/01/22 12:58:25;;;;;;;11.63;3.70;;;9.70;99.90;;;;;;5077293;28;20203;-79
2024/01/22 13:00:53;;;;;;;9.97;3.20;;;9.70;99.90;;;;;;5074737;28;20202;-79
2024/01/22 13:03:21;;;;;;;20.57;4.33;;;9.70;99.90;;;;;;5078209;28;20208;-79